Time;durP1;ratioP1;P1;durP2;ratioP2;P2;SDS_P1;SDS_P2;PMS_P1;PMS_P2;Temp;Humidity;BMP_temperature;BMP_pressure;BME280_temperature;BME280_humidity;BME280_pressure;Samples;Min_cycle;Max_cycle;Signal;HPM_P1;HPM_P2
2022/04/14 00:01:49;;;;;;;10.10;6.70;;;12.10;99.90;;;;;;5073683;28;20440;-79
2022/04/14 00:04:35;;;;;;;10.60;6.30;;;12.10;99.90;;;;;;5044330;28;20444;-79
2022/04/14 00:07:19;;;;;;;13.50;6.50;;;11.90;99.90;;;;;;5084038;28;20445;-79
2022/04/14 00:10:05;;;;;;;6.63;6.10;;;11.90;99.90;;;;;;5072453;28;20471;-79
2022/04/14 00:12:50;;;;;;;13.90;6.10;;;12.00;99.90;;;;;;5070555;28;20573;-80
2022/04/14 00:15:35;;;;;;;6.77;6.03;;;12.00;99.90;;;;;;5084086;28;20452;-79
2022/04/14 00:18:19;;;;;;;10.30;6.43;;;12.00;99.90;;;;;;5093869;28;20397;-80
2022/04/14 00:21:04;;;;;;;9.60;6.20;;;12.10;99.90;;;;;;5073043;28;20404;-79
2022/04/14 00:23:48;;;;;;;9.03;7.13;;;12.20;99.90;;;;;;5094698;28;20470;-79
2022/04/14 00:26:33;;;;;;;11.67;8.13;;;12.20;99.90;;;;;;5093387;28;20421;-79
2022/04/14 00:29:18;;;;;;;7.97;6.30;;;12.20;99.90;;;;;;5094433;28;20405;-79
2022/04/14 00:32:03;;;;;;;9.87;6.33;;;12.20;99.90;;;;;;5078541;28;20385;-79
2022/04/14 00:34:47;;;;;;;11.10;6.60;;;12.10;99.90;;;;;;5093163;28;20381;-79
2022/04/14 00:37:32;;;;;;;7.90;6.53;;;12.00;99.90;;;;;;5077426;28;20421;-79
2022/04/14 00:40:16;;;;;;;6.80;6.20;;;12.00;99.90;;;;;;5092567;28;20451;-79
2022/04/14 00:43:00;;;;;;;6.53;4.93;;;11.90;99.90;;;;;;5078214;28;20451;-79
2022/04/14 00:45:45;;;;;;;10.90;6.57;;;11.80;99.90;;;;;;5086231;28;20377;-80
2022/04/14 00:48:30;;;;;;;11.77;7.47;;;11.90;99.90;;;;;;5091041;28;20450;-79
2022/04/14 00:51:15;;;;;;;8.03;6.20;;;12.00;99.90;;;;;;5088575;28;20406;-79
2022/04/14 00:54:00;;;;;;;8.10;6.40;;;12.20;99.90;;;;;;5076890;28;20440;-79
2022/04/14 00:56:45;;;;;;;10.10;7.30;;;12.20;99.90;;;;;;5071880;28;20453;-79
2022/04/14 00:59:30;;;;;;;9.60;6.03;;;12.30;99.90;;;;;;5089026;28;20420;-79
2022/04/14 01:02:15;;;;;;;10.13;6.77;;;12.40;99.90;;;;;;5070779;28;20425;-79
2022/04/14 01:05:00;;;;;;;6.67;6.07;;;12.30;99.90;;;;;;5094505;28;20453;-78
2022/04/14 01:07:45;;;;;;;8.63;7.23;;;12.30;99.90;;;;;;5082684;28;20357;-77
2022/04/14 01:10:30;;;;;;;7.10;6.40;;;12.30;99.90;;;;;;5096873;28;20404;-78
2022/04/14 01:13:17;;;;;;;10.93;6.43;;;12.30;99.90;;;;;;5092272;28;20444;-78
2022/04/14 01:16:01;;;;;;;17.93;6.40;;;12.30;99.90;;;;;;5090646;28;20385;-79
2022/04/14 01:18:45;;;;;;;7.70;6.73;;;12.20;99.90;;;;;;5092185;28;20404;-79
2022/04/14 01:21:33;;;;;;;12.17;6.37;;;12.20;99.90;;;;;;5077504;28;20389;-79
2022/04/14 01:24:18;;;;;;;8.33;7.43;;;12.10;99.90;;;;;;5091426;28;20466;-79
2022/04/14 01:27:04;;;;;;;9.67;7.27;;;12.00;99.90;;;;;;5091777;28;21178;-79
2022/04/14 01:29:51;;;;;;;9.47;7.00;;;12.00;99.90;;;;;;5070911;28;20382;-79
2022/04/14 01:32:36;;;;;;;6.90;6.20;;;11.90;99.90;;;;;;5071861;28;20393;-80
2022/04/14 01:35:22;;;;;;;9.23;6.87;;;11.90;99.90;;;;;;5080952;28;20754;-79
2022/04/14 01:38:06;;;;;;;8.00;7.20;;;11.90;99.90;;;;;;5076206;28;20423;-79
2022/04/14 01:40:51;;;;;;;9.97;7.70;;;11.80;99.90;;;;;;5084449;28;20432;-79
2022/04/14 01:43:35;;;;;;;8.43;7.63;;;11.80;99.90;;;;;;5090376;28;20460;-79
2022/04/14 01:46:19;;;;;;;9.30;7.10;;;11.80;99.90;;;;;;5087691;28;20941;-79
2022/04/14 01:49:04;;;;;;;8.83;7.70;;;11.90;99.90;;;;;;5090820;28;20384;-79
2022/04/14 01:51:49;;;;;;;11.87;7.27;;;11.80;99.90;;;;;;5075693;28;20385;-79
2022/04/14 01:54:34;;;;;;;10.40;8.17;;;11.80;99.90;;;;;;5090643;28;20930;-79
2022/04/14 01:57:20;;;;;;;8.37;7.37;;;11.80;99.90;;;;;;5096339;28;20427;-79
2022/04/14 02:00:07;;;;;;;8.17;6.20;;;11.80;99.90;;;;;;5096135;28;20405;-79
2022/04/14 02:02:52;;;;;;;9.80;7.07;;;11.80;99.90;;;;;;5091739;28;20444;-79
2022/04/14 02:05:36;;;;;;;13.73;7.50;;;11.80;99.90;;;;;;5091071;28;20400;-79
2022/04/14 02:08:21;;;;;;;10.73;7.40;;;11.70;99.90;;;;;;5090166;28;20404;-79
2022/04/14 02:11:06;;;;;;;7.70;6.90;;;11.70;99.90;;;;;;5090356;28;20445;-79
2022/04/14 02:13:51;;;;;;;14.63;8.40;;;11.80;99.90;;;;;;5090186;28;20392;-79
2022/04/14 02:16:36;;;;;;;7.70;7.00;;;11.80;99.90;;;;;;5090689;28;20392;-79
2022/04/14 02:19:21;;;;;;;9.83;8.03;;;11.70;99.90;;;;;;5091614;28;20403;-79
2022/04/14 02:22:06;;;;;;;8.90;7.00;;;11.70;99.90;;;;;;5092880;28;20408;-79
2022/04/14 02:24:50;;;;;;;8.85;7.80;;;11.80;99.90;;;;;;5075737;28;20932;-79
2022/04/14 02:27:36;;;;;;;10.43;8.80;;;11.80;99.90;;;;;;5094967;28;20154;-79
2022/04/14 02:30:21;;;;;;;8.57;7.43;;;11.80;99.90;;;;;;5095732;28;20419;-79
2022/04/14 02:33:07;;;;;;;7.60;6.90;;;11.80;99.90;;;;;;5094661;28;20885;-79
2022/04/14 02:35:52;;;;;;;11.50;8.07;;;11.80;99.90;;;;;;5094863;28;20424;-79
2022/04/14 02:38:36;;;;;;;11.90;8.00;;;11.80;99.90;;;;;;5094512;28;20385;-79
2022/04/14 02:41:21;;;;;;;14.33;8.40;;;11.80;99.90;;;;;;5093589;28;20404;-79
2022/04/14 02:44:06;;;;;;;10.37;7.30;;;11.80;99.90;;;;;;5094809;28;20471;-79
2022/04/14 02:46:50;;;;;;;13.00;7.37;;;11.80;99.90;;;;;;5093160;28;20388;-80
2022/04/14 02:49:35;;;;;;;10.93;7.67;;;11.80;99.90;;;;;;5094177;28;20381;-79
2022/04/14 02:52:20;;;;;;;10.63;7.27;;;11.70;99.90;;;;;;5093858;28;20404;-79
2022/04/14 02:55:06;;;;;;;11.13;7.10;;;11.70;99.90;;;;;;5092961;28;20849;-79
2022/04/14 02:57:51;;;;;;;11.67;8.00;;;11.70;99.90;;;;;;5078450;28;20386;-79
2022/04/14 03:00:36;;;;;;;10.53;7.60;;;11.70;99.90;;;;;;5093804;28;20460;-79
2022/04/14 03:03:23;;;;;;;9.13;6.57;;;11.60;99.90;;;;;;5093523;28;20467;-79
2022/04/14 03:06:08;;;;;;;7.67;6.97;;;11.60;99.90;;;;;;5093728;28;20473;-79
2022/04/14 03:08:53;;;;;;;9.70;7.20;;;11.50;99.90;;;;;;5093479;28;20403;-79
2022/04/14 03:11:38;;;;;;;26.63;7.47;;;11.60;99.90;;;;;;5093519;28;20444;-79
2022/04/14 03:14:22;;;;;;;7.60;6.37;;;11.60;99.90;;;;;;5095459;28;20396;-79
2022/04/14 03:17:06;;;;;;;14.47;6.60;;;11.60;99.90;;;;;;5099666;28;20431;-79
2022/04/14 03:19:50;;;;;;;12.10;6.63;;;11.50;99.90;;;;;;5100151;28;20411;-79
2022/04/14 03:22:37;;;;;;;9.80;8.13;;;11.60;99.90;;;;;;5084295;28;20416;-79
2022/04/14 03:25:21;;;;;;;7.83;7.03;;;11.50;99.90;;;;;;5094169;28;20521;-79
2022/04/14 03:28:06;;;;;;;14.27;6.60;;;11.50;99.90;;;;;;5094263;28;20388;-79
2022/04/14 03:30:50;;;;;;;6.67;5.47;;;11.50;99.90;;;;;;5094124;28;20385;-79
2022/04/14 03:33:35;;;;;;;11.13;6.93;;;11.40;99.90;;;;;;5093228;28;20417;-79
2022/04/14 03:36:21;;;;;;;7.40;6.50;;;11.30;99.90;;;;;;5093984;28;20385;-79
2022/04/14 03:39:05;;;;;;;13.37;7.70;;;11.40;99.90;;;;;;5078510;28;20449;-79
2022/04/14 03:41:50;;;;;;;10.53;7.43;;;11.20;99.90;;;;;;5093285;28;20398;-79
2022/04/14 03:44:34;;;;;;;14.50;8.70;;;11.20;99.90;;;;;;5092517;28;20448;-79
2022/04/14 03:47:18;;;;;;;13.80;6.47;;;11.30;99.90;;;;;;5091180;28;20428;-79
2022/04/14 03:50:03;;;;;;;12.33;6.77;;;11.30;99.90;;;;;;5092541;28;20417;-79
2022/04/14 03:52:48;;;;;;;6.80;6.20;;;11.30;99.90;;;;;;5092908;28;20400;-79
2022/04/14 03:55:33;;;;;;;8.33;7.10;;;11.20;99.90;;;;;;5093111;28;20504;-79
2022/04/14 03:58:17;;;;;;;9.10;7.90;;;11.20;99.90;;;;;;5093294;28;20439;-79
2022/04/14 04:01:03;;;;;;;9.70;7.47;;;11.10;99.90;;;;;;5086588;28;20389;-79
2022/04/14 04:03:48;;;;;;;7.87;5.73;;;10.90;99.90;;;;;;5077881;28;20440;-79
2022/04/14 04:06:33;;;;;;;5.90;5.10;;;10.10;99.90;;;;;;5091960;28;20418;-79
2022/04/14 04:09:18;;;;;;;8.47;5.60;;;9.70;99.90;;;;;;5090595;28;20393;-79
2022/04/14 04:12:03;;;;;;;13.27;6.30;;;9.40;99.90;;;;;;5083220;28;20449;-79
2022/04/14 04:14:48;;;;;;;11.13;6.30;;;9.40;99.90;;;;;;5071803;28;20475;-78
2022/04/14 04:17:33;;;;;;;6.80;6.10;;;9.30;99.90;;;;;;5057251;28;20441;-78
2022/04/14 04:20:19;;;;;;;13.00;6.87;;;9.60;99.90;;;;;;5073088;28;20390;-79
2022/04/14 04:23:05;;;;;;;12.33;7.40;;;10.00;99.90;;;;;;5071584;28;20552;-80
2022/04/14 04:25:49;;;;;;;12.57;7.20;;;10.20;99.90;;;;;;5072820;28;20451;-79
2022/04/14 04:28:34;;;;;;;11.80;8.10;;;10.20;99.90;;;;;;5077618;28;20405;-79
2022/04/14 04:31:18;;;;;;;9.87;7.53;;;10.30;99.90;;;;;;5077290;28;20386;-78
2022/04/14 04:34:03;;;;;;;15.07;8.40;;;10.30;99.90;;;;;;5076074;28;20417;-78
2022/04/14 04:36:47;;;;;;;11.73;7.50;;;10.30;99.90;;;;;;5061339;28;20409;-77
2022/04/14 04:39:32;;;;;;;7.23;6.47;;;10.40;99.90;;;;;;5076638;28;20416;-78
2022/04/14 04:42:17;;;;;;;7.93;6.60;;;10.40;99.90;;;;;;5077227;28;20382;-78
2022/04/14 04:45:02;;;;;;;8.70;7.73;;;10.40;99.90;;;;;;5062018;28;20398;-77
2022/04/14 04:47:47;;;;;;;7.60;6.80;;;10.40;99.90;;;;;;5075884;28;20378;-79
2022/04/14 04:50:32;;;;;;;7.17;6.30;;;10.40;99.90;;;;;;5061981;28;20382;-78
2022/04/14 04:53:16;;;;;;;7.47;6.67;;;10.40;99.90;;;;;;5075461;28;20386;-78
2022/04/14 04:56:01;;;;;;;9.80;7.50;;;10.30;99.90;;;;;;5059484;28;20811;-78
2022/04/14 04:58:46;;;;;;;8.83;6.87;;;10.30;99.90;;;;;;5054213;28;20402;-79
2022/04/14 05:01:31;;;;;;;11.70;7.40;;;10.30;99.90;;;;;;5053948;28;20441;-79
2022/04/14 05:04:15;;;;;;;12.43;8.40;;;10.40;99.90;;;;;;5071090;28;20461;-79
2022/04/14 05:07:00;;;;;;;9.63;6.80;;;10.50;99.90;;;;;;5070651;28;20425;-79
2022/04/14 05:09:44;;;;;;;11.73;7.70;;;10.60;99.90;;;;;;5062634;28;20429;-79
2022/04/14 05:12:29;;;;;;;10.40;8.43;;;10.60;99.90;;;;;;5082098;28;20449;-79
2022/04/14 05:15:13;;;;;;;12.50;7.47;;;10.60;99.90;;;;;;5079741;28;20495;-79
2022/04/14 05:17:58;;;;;;;13.37;7.30;;;10.70;99.90;;;;;;5075445;28;20422;-79
2022/04/14 05:20:43;;;;;;;14.67;6.80;;;10.80;99.90;;;;;;5078596;28;20419;-78
2022/04/14 05:23:27;;;;;;;7.87;6.67;;;10.80;99.90;;;;;;5077079;28;20548;-79
2022/04/14 05:26:12;;;;;;;15.90;7.87;;;10.70;99.90;;;;;;5086279;28;20447;-79
2022/04/14 05:28:56;;;;;;;18.20;7.90;;;10.70;99.90;;;;;;5088185;28;20390;-79
2022/04/14 05:31:41;;;;;;;14.63;8.43;;;10.80;99.90;;;;;;5080653;28;20443;-77
2022/04/14 05:34:26;;;;;;;8.30;6.13;;;10.90;99.90;;;;;;5060564;28;20925;-78
2022/04/14 05:37:10;;;;;;;11.40;7.60;;;11.00;99.90;;;;;;5067464;28;20417;-77
2022/04/14 05:39:55;;;;;;;10.47;7.30;;;11.10;99.90;;;;;;5050464;28;20957;-79
2022/04/14 05:42:45;;;;;;;12.17;6.03;;;11.10;99.90;;;;;;5093370;28;20428;-80
2022/04/14 05:45:31;;;;;;;7.67;6.67;;;11.00;99.90;;;;;;5080647;28;20436;-78
2022/04/14 05:48:17;;;;;;;7.80;7.00;;;11.10;99.90;;;;;;5093326;28;20395;-79
2022/04/14 05:51:02;;;;;;;12.50;7.93;;;11.10;99.90;;;;;;5098370;28;20440;-79
2022/04/14 05:53:50;;;;;;;7.80;7.10;;;11.20;99.90;;;;;;5082888;28;20539;-79
2022/04/14 05:56:34;;;;;;;13.43;8.10;;;11.10;99.90;;;;;;5074037;28;20436;-79
2022/04/14 05:59:19;;;;;;;9.90;7.03;;;11.40;99.90;;;;;;5083155;28;20718;-79
2022/04/14 06:02:04;;;;;;;10.17;8.43;;;11.50;99.90;;;;;;5087227;28;20763;-79
2022/04/14 06:04:49;;;;;;;9.07;7.40;;;11.80;99.90;;;;;;5069961;28;20432;-79
2022/04/14 06:07:34;;;;;;;12.33;7.30;;;11.90;99.90;;;;;;5082231;28;20441;-77
2022/04/14 06:10:19;;;;;;;8.17;6.47;;;12.00;99.90;;;;;;5067006;28;20409;-78
2022/04/14 06:13:04;;;;;;;10.10;8.00;;;12.00;99.90;;;;;;5085824;28;20512;-79
2022/04/14 06:15:49;;;;;;;8.20;7.40;;;12.20;99.90;;;;;;5097158;28;20417;-79
2022/04/14 06:18:33;;;;;;;8.10;6.87;;;12.30;99.90;;;;;;5076771;28;20444;-79
2022/04/14 06:21:18;;;;;;;7.70;6.63;;;12.40;99.90;;;;;;5071956;28;20420;-79
2022/04/14 06:24:03;;;;;;;10.37;7.57;;;12.60;99.90;;;;;;5075548;28;20479;-79
2022/04/14 06:26:48;;;;;;;9.27;7.77;;;12.60;99.90;;;;;;5075377;28;20475;-79
2022/04/14 06:29:33;;;;;;;12.67;8.03;;;12.60;99.90;;;;;;5085124;28;20421;-79
2022/04/14 06:32:18;;;;;;;9.83;8.47;;;12.70;99.90;;;;;;5070610;28;20510;-78
2022/04/14 06:35:05;;;;;;;7.97;6.87;;;12.80;99.90;;;;;;5076613;28;20437;-78
2022/04/14 06:37:50;;;;;;;8.10;7.30;;;12.90;99.90;;;;;;5089390;28;20935;-79
2022/04/14 06:40:35;;;;;;;12.33;7.80;;;13.10;99.90;;;;;;5084354;28;20525;-79
2022/04/14 06:43:20;;;;;;;8.90;8.00;;;13.00;99.90;;;;;;5073823;28;20468;-80
2022/04/14 06:46:05;;;;;;;7.47;6.63;;;13.00;99.90;;;;;;5092113;28;20436;-79
2022/04/14 06:48:50;;;;;;;12.23;8.03;;;13.00;99.90;;;;;;5087438;28;20452;-79
2022/04/14 06:51:35;;;;;;;11.37;6.90;;;13.10;99.90;;;;;;5079028;28;20481;-79
2022/04/14 06:54:19;;;;;;;9.23;6.80;;;13.10;99.90;;;;;;5083952;28;20934;-79
2022/04/14 06:57:04;;;;;;;13.90;7.97;;;13.20;99.90;;;;;;5078035;28;20562;-79
2022/04/14 06:59:49;;;;;;;9.50;8.10;;;13.20;99.90;;;;;;5074762;28;20467;-79
2022/04/14 07:02:35;;;;;;;9.73;8.20;;;13.20;99.90;;;;;;5087265;28;20448;-79
2022/04/14 07:05:20;;;;;;;7.73;7.03;;;13.30;99.90;;;;;;5080604;28;20456;-79
2022/04/14 07:08:07;;;;;;;8.30;7.43;;;13.40;99.90;;;;;;5072788;28;20432;-80
2022/04/14 07:10:54;;;;;;;8.97;7.23;;;13.60;99.90;;;;;;5069006;28;20449;-79
2022/04/14 07:13:40;;;;;;;10.77;7.17;;;13.60;99.90;;;;;;5086350;28;20454;-80
2022/04/14 07:16:25;;;;;;;9.80;8.80;;;13.60;99.90;;;;;;5088964;28;20471;-79
2022/04/14 07:19:09;;;;;;;13.17;7.53;;;13.70;99.90;;;;;;5090513;28;20437;-79
2022/04/14 07:21:54;;;;;;;8.40;7.07;;;13.70;99.90;;;;;;5096798;28;20485;-79
2022/04/14 07:24:38;;;;;;;9.30;8.10;;;13.70;99.90;;;;;;5081586;28;20477;-79
2022/04/14 07:27:23;;;;;;;9.73;8.73;;;13.70;99.90;;;;;;5090042;28;20851;-80
2022/04/14 07:30:09;;;;;;;11.07;7.13;;;13.70;99.90;;;;;;5088036;28;20513;-81
2022/04/14 07:32:54;;;;;;;11.87;7.83;;;13.80;99.90;;;;;;5087532;28;20433;-79
2022/04/14 07:35:38;;;;;;;8.73;7.20;;;13.80;99.90;;;;;;5091399;28;20464;-79
2022/04/14 07:38:26;;;;;;;12.33;8.87;;;13.90;99.90;;;;;;5069948;28;20480;-78
2022/04/14 07:41:11;;;;;;;8.20;7.40;;;13.90;99.90;;;;;;5045720;28;20873;-81
2022/04/14 07:43:56;;;;;;;13.70;8.10;;;14.00;99.90;;;;;;5072100;28;20515;-81
2022/04/14 07:46:41;;;;;;;12.20;9.47;;;14.10;99.90;;;;;;5070569;28;20464;-79
2022/04/14 07:49:27;;;;;;;12.40;8.83;;;14.10;99.90;;;;;;5076344;28;20506;-80
2022/04/14 07:52:13;;;;;;;13.33;10.77;;;14.10;99.90;;;;;;5068836;28;20494;-78
2022/04/14 07:55:04;;;;;;;11.00;9.80;;;14.20;99.90;;;;;;5011103;28;20495;-80
2022/04/14 07:57:52;;;;;;;12.47;10.20;;;14.20;99.90;;;;;;5025868;28;20438;-80
2022/04/14 08:00:38;;;;;;;14.03;10.77;;;14.20;99.90;;;;;;5020288;28;20434;-80
2022/04/14 08:03:23;;;;;;;14.53;10.73;;;14.30;99.90;;;;;;5027657;28;20538;-79
2022/04/14 08:06:10;;;;;;;15.80;10.23;;;14.50;99.90;;;;;;5017093;28;20419;-80
2022/04/14 08:08:54;;;;;;;12.63;11.33;;;14.50;99.90;;;;;;5043732;28;20484;-80
2022/04/14 08:11:38;;;;;;;13.80;11.50;;;14.50;99.90;;;;;;5017765;28;20495;-80
2022/04/14 08:14:23;;;;;;;22.83;10.60;;;14.60;99.90;;;;;;5011121;28;20451;-79
2022/04/14 08:17:08;;;;;;;16.23;11.40;;;14.60;99.90;;;;;;5028759;28;20455;-79
2022/04/14 08:19:55;;;;;;;11.80;9.90;;;14.60;99.90;;;;;;5031080;28;20419;-79
2022/04/14 08:22:50;;;;;;;14.87;10.27;;;14.70;99.90;;;;;;5018492;28;20459;-80
2022/04/14 08:25:35;;;;;;;13.53;12.17;;;14.90;99.90;;;;;;5056587;28;20496;-80
2022/04/14 08:28:20;;;;;;;17.17;12.17;;;15.10;99.90;;;;;;5091384;28;20440;-79
2022/04/14 08:31:05;;;;;;;16.37;12.00;;;15.20;99.90;;;;;;5088481;28;20424;-80
2022/04/14 08:33:50;;;;;;;16.50;12.77;;;15.30;99.90;;;;;;5088324;28;21272;-80
2022/04/14 08:36:36;;;;;;;13.37;12.07;;;15.50;99.90;;;;;;5086960;28;20445;-79
2022/04/14 08:39:20;;;;;;;13.40;11.90;;;15.60;99.90;;;;;;5091275;28;20468;-79
2022/04/14 08:42:15;;;;;;;16.40;11.27;;;15.80;99.90;;;;;;5085675;28;20591;-79
2022/04/14 08:45:03;;;;;;;17.37;13.33;;;16.00;99.90;;;;;;5087417;28;20440;-79
2022/04/14 08:47:50;;;;;;;16.27;14.63;;;16.00;99.90;;;;;;5078937;28;20489;-79
2022/04/14 08:50:35;;;;;;;22.67;12.60;;;16.00;99.90;;;;;;5086576;28;20533;-79
2022/04/14 08:53:25;;;;;;;15.70;12.67;;;16.00;99.90;;;;;;5083749;28;20429;-79
2022/04/14 08:56:11;;;;;;;16.87;12.27;;;16.30;99.90;;;;;;5086253;28;20497;-79
2022/04/14 08:58:56;;;;;;;14.77;12.13;;;16.30;99.90;;;;;;5087091;28;20435;-80
2022/04/14 09:01:41;;;;;;;12.87;11.07;;;16.60;99.90;;;;;;5085990;28;20453;-80
2022/04/14 09:04:25;;;;;;;18.13;10.50;;;16.90;99.90;;;;;;5085170;28;21151;-79
2022/04/14 09:07:11;;;;;;;16.37;10.70;;;17.00;99.90;;;;;;5075795;28;20447;-78
2022/04/14 09:09:55;;;;;;;15.10;9.90;;;16.90;99.90;;;;;;5059320;28;20901;-79
2022/04/14 09:12:41;;;;;;;15.67;10.60;;;16.90;99.90;;;;;;5076371;28;20449;-79
2022/04/14 09:15:27;;;;;;;12.67;9.20;;;16.80;99.90;;;;;;5072921;28;20507;-79
2022/04/14 09:18:13;;;;;;;12.67;8.97;;;17.00;99.90;;;;;;5070949;28;20459;-79
2022/04/14 09:21:08;;;;;;;18.37;10.80;;;17.00;99.90;;;;;;5087084;28;20451;-80
2022/04/14 09:23:52;;;;;;;11.00;9.33;;;17.10;99.90;;;;;;5067052;28;20456;-78
2022/04/14 09:26:42;;;;;;;17.40;11.67;;;17.20;99.90;;;;;;5080681;28;20517;-78
2022/04/14 09:29:26;;;;;;;16.83;11.50;;;17.50;99.90;;;;;;5075392;28;20984;-78
2022/04/14 09:32:11;;;;;;;11.10;9.87;;;18.00;99.90;;;;;;5073419;28;20456;-79
2022/04/14 09:34:56;;;;;;;13.53;10.33;;;18.40;99.90;;;;;;5090414;28;20435;-79
2022/04/14 09:37:41;;;;;;;14.20;10.43;;;18.60;99.90;;;;;;5076580;28;20479;-78
2022/04/14 09:40:30;;;;;;;12.33;10.70;;;18.60;99.90;;;;;;5070539;28;20470;-78
2022/04/14 09:43:16;;;;;;;11.37;9.77;;;18.10;99.90;;;;;;5086679;28;20498;-79
2022/04/14 09:46:00;;;;;;;13.07;10.90;;;18.40;99.90;;;;;;5095033;28;20409;-80
2022/04/14 09:49:08;;;;;;;11.10;9.90;;;18.40;99.90;;;;;;5073266;28;20461;-78
2022/04/14 09:51:53;;;;;;;13.40;9.93;;;18.80;99.90;;;;;;5086341;28;20451;-80
2022/04/14 09:54:39;;;;;;;11.83;10.60;;;19.00;99.90;;;;;;5087776;28;20452;-80
2022/04/14 09:57:25;;;;;;;12.77;10.27;;;19.40;99.90;;;;;;5077954;28;20497;-80
2022/04/14 10:00:11;;;;;;;14.17;10.13;;;19.50;99.90;;;;;;5080667;28;20451;-80
2022/04/14 10:03:14;;;;;;;17.00;11.83;;;19.40;99.90;;;;;;5086939;28;20494;-79
2022/04/14 10:06:04;;;;;;;16.73;11.07;;;18.90;99.90;;;;;;5067010;28;20434;-79
2022/04/14 10:08:51;;;;;;;18.40;11.00;;;19.60;99.90;;;;;;5073250;28;20514;-79
2022/04/14 10:11:37;;;;;;;14.97;11.33;;;19.70;99.90;;;;;;5071008;28;20514;-79
2022/04/14 10:14:25;;;;;;;11.90;10.43;;;19.70;99.90;;;;;;5081141;28;20939;-80
2022/04/14 10:17:10;;;;;;;13.10;10.50;;;20.00;99.90;;;;;;5074314;28;20432;-80
2022/04/14 10:19:55;;;;;;;19.47;11.37;;;19.50;99.90;;;;;;5069732;28;20536;-79
2022/04/14 10:22:40;;;;;;;14.00;11.47;;;19.10;99.90;;;;;;5083890;28;20545;-79
2022/04/14 10:25:25;;;;;;;15.07;10.97;;;19.50;99.90;;;;;;5098099;28;20420;-79
2022/04/14 10:28:16;;;;;;;16.93;12.50;;;20.40;99.90;;;;;;5067187;28;20418;-80
2022/04/14 10:31:02;;;;;;;12.17;10.47;;;20.50;99.90;;;;;;5091048;28;20425;-80
2022/04/14 10:33:48;;;;;;;12.13;10.93;;;21.20;99.90;;;;;;5071862;28;20436;-80
2022/04/14 10:36:38;;;;;;;14.77;12.20;;;21.60;99.90;;;;;;5078055;28;20437;-80
2022/04/14 10:39:23;;;;;;;14.57;12.17;;;21.70;99.90;;;;;;5079731;28;20409;-80
2022/04/14 10:42:09;;;;;;;16.53;12.53;;;22.00;99.90;;;;;;5055535;28;20839;-80
2022/04/14 10:44:54;;;;;;;15.70;10.60;;;22.30;99.90;;;;;;5086356;28;20476;-80
2022/04/14 10:47:56;;;;;;;13.90;11.77;;;22.60;99.90;;;;;;5059278;28;20467;-79
2022/04/14 10:50:44;;;;;;;12.30;11.00;;;22.80;99.90;;;;;;5080713;28;20478;-80
2022/04/14 10:53:31;;;;;;;11.77;10.57;;;23.20;99.90;;;;;;5071662;28;20425;-79
2022/04/14 10:56:45;;;;;;;19.03;12.40;;;23.40;99.90;;;;;;5090326;28;20453;-79
2022/04/14 10:59:46;;;;;;;15.00;11.83;;;23.70;99.90;;;;;;5082735;28;20417;-81
2022/04/14 11:02:55;;;;;;;17.00;12.50;;;24.00;99.90;;;;;;5084641;28;20428;-80
2022/04/14 11:05:48;;;;;;;13.90;11.63;;;24.10;99.90;;;;;;5098230;28;20428;-80
2022/04/14 11:08:33;;;;;;;13.00;11.70;;;24.10;99.90;;;;;;5091932;28;20443;-80
2022/04/14 11:11:18;;;;;;;11.23;10.07;;;23.90;99.90;;;;;;5019240;28;20464;-79
2022/04/14 11:14:06;;;;;;;14.67;11.10;;;24.00;99.90;;;;;;5018094;28;20453;-80
2022/04/14 11:16:50;;;;;;;12.57;11.27;;;24.50;99.90;;;;;;5008517;28;20419;-80
2022/04/14 11:19:35;;;;;;;14.10;12.70;;;24.70;99.90;;;;;;5003459;28;20433;-80
2022/04/14 11:22:20;;;;;;;12.50;11.17;;;24.80;99.90;;;;;;5020251;28;20419;-78
2022/04/14 11:25:05;;;;;;;13.17;10.67;;;24.90;99.10;;;;;;5020481;28;20498;-78
2022/04/14 11:28:24;;;;;;;12.80;11.50;;;25.20;98.50;;;;;;5000193;28;20524;-79
2022/04/14 11:31:25;;;;;;;13.53;12.23;;;25.80;96.30;;;;;;5034253;28;20463;-80
2022/04/14 11:34:32;;;;;;;12.30;10.20;;;25.80;95.50;;;;;;4996371;28;20492;-79
2022/04/14 11:37:43;;;;;;;13.10;11.33;;;26.00;94.40;;;;;;5006478;28;20454;-79
2022/04/14 11:40:28;;;;;;;13.20;10.73;;;26.60;93.30;;;;;;5014142;28;21136;-79
2022/04/14 11:43:13;;;;;;;12.80;11.50;;;26.50;93.10;;;;;;5066141;28;20478;-80
2022/04/14 11:46:00;;;;;;;10.90;10.00;;;27.10;90.80;;;;;;5071345;28;20415;-81
2022/04/14 11:48:45;;;;;;;11.33;10.17;;;27.40;88.40;;;;;;5076599;28;20438;-80
2022/04/14 11:51:30;;;;;;;10.53;9.07;;;27.20;87.00;;;;;;5061315;28;20429;-80
2022/04/14 11:54:33;;;;;;;9.83;8.83;;;26.90;87.40;;;;;;5089628;28;20419;-80
2022/04/14 11:57:26;;;;;;;10.90;9.90;;;27.30;83.10;;;;;;5084122;28;20508;-80
2022/04/14 12:00:12;;;;;;;14.53;9.20;;;27.50;82.70;;;;;;5099066;28;20455;-79
2022/04/14 12:03:01;;;;;;;8.40;7.67;;;27.70;81.40;;;;;;5085148;28;20448;-79
2022/04/14 12:06:00;;;;;;;7.73;7.00;;;28.60;77.50;;;;;;5085073;28;20463;-80
2022/04/14 12:08:54;;;;;;;11.20;9.60;;;28.60;75.00;;;;;;5048866;28;20473;-81
2022/04/14 12:11:38;;;;;;;9.10;8.27;;;28.80;74.40;;;;;;5041767;28;20532;-80
2022/04/14 12:14:25;;;;;;;8.80;7.90;;;29.20;72.20;;;;;;5042728;28;20460;-80
2022/04/14 12:17:10;;;;;;;8.93;8.03;;;29.30;70.40;;;;;;5040354;28;20460;-84
2022/04/14 12:19:59;;;;;;;9.93;8.93;;;27.70;70.70;;;;;;4994179;28;20284;-82
2022/04/14 12:22:46;;;;;;;7.17;6.53;;;27.50;74.10;;;;;;4995629;28;20443;-84
2022/04/14 12:25:32;;;;;;;7.20;6.60;;;28.20;73.00;;;;;;4974243;28;20453;-80
2022/04/14 12:28:16;;;;;;;7.87;7.03;;;28.60;69.90;;;;;;4944079;29;20453;-84
2022/04/14 12:31:11;;;;;;;8.93;7.37;;;28.70;70.10;;;;;;4953993;29;20513;-84
2022/04/14 12:33:58;;;;;;;7.10;5.90;;;28.30;71.20;;;;;;4977417;28;20455;-83
2022/04/14 12:36:43;;;;;;;6.73;6.10;;;28.90;70.70;;;;;;5005510;28;20903;-84
2022/04/14 12:40:01;;;;;;;6.80;5.87;;;29.40;66.90;;;;;;4984687;28;20413;-84
2022/04/14 12:42:47;;;;;;;7.80;7.10;;;29.10;67.40;;;;;;4947770;28;20413;-82
2022/04/14 12:45:42;;;;;;;8.37;7.57;;;28.90;67.60;;;;;;4983954;28;20200;-85
2022/04/14 12:48:39;;;;;;;7.87;6.80;;;29.60;68.20;;;;;;4932170;28;20453;-84
2022/04/14 12:51:41;;;;;;;8.77;6.37;;;29.40;66.50;;;;;;4987804;28;20486;-84
2022/04/14 12:54:26;;;;;;;7.40;6.30;;;29.10;66.30;;;;;;5019882;28;20466;-84
2022/04/14 12:57:10;;;;;;;9.33;5.60;;;29.30;66.20;;;;;;5010255;28;20199;-84
2022/04/14 13:00:37;;;;;;;6.97;6.20;;;29.70;65.60;;;;;;4977606;28;20201;-84
2022/04/14 13:03:23;;;;;;;6.63;5.20;;;29.60;65.80;;;;;;4964862;28;20280;-84
2022/04/14 13:06:18;;;;;;;6.57;5.97;;;29.00;66.00;;;;;;4984410;28;20288;-85
2022/04/14 13:09:18;;;;;;;6.88;6.25;;;29.40;65.40;;;;;;4980004;28;20267;-84
2022/04/14 13:12:05;;;;;;;6.20;5.60;;;29.80;63.80;;;;;;5046046;28;20308;-83
2022/04/14 13:14:49;;;;;;;6.22;5.80;;;29.60;63.60;;;;;;5042437;28;20717;-84
2022/04/14 13:17:39;;;;;;;7.50;5.35;;;30.20;62.30;;;;;;4994200;28;20226;-84
2022/04/14 13:20:40;;;;;;;4.25;3.95;;;29.00;62.20;;;;;;5030822;28;20214;-82
2022/04/14 13:23:45;;;;;;;7.65;6.93;;;29.10;63.10;;;;;;5001920;28;20220;-83
2022/04/14 13:26:31;;;;;;;7.53;6.45;;;30.00;62.80;;;;;;4996266;28;20215;-84
2022/04/14 13:29:16;;;;;;;5.07;4.68;;;30.30;62.70;;;;;;5006174;28;20196;-83
2022/04/14 13:32:02;;;;;;;6.80;6.18;;;29.70;62.50;;;;;;5032866;28;20225;-84
2022/04/14 13:34:46;;;;;;;5.65;5.15;;;28.10;64.90;;;;;;5031904;28;20217;-83
2022/04/14 13:37:32;;;;;;;5.97;5.50;;;29.50;64.60;;;;;;5043546;28;20234;-84
2022/04/14 13:40:18;;;;;;;5.68;5.18;;;29.60;64.00;;;;;;5049632;28;20175;-84
2022/04/14 13:43:08;;;;;;;5.93;5.53;;;29.80;62.90;;;;;;5031348;28;20215;-84
2022/04/14 13:45:56;;;;;;;8.98;5.32;;;30.00;62.40;;;;;;5011809;28;20246;-84
2022/04/14 13:48:44;;;;;;;5.22;4.82;;;29.50;63.00;;;;;;5033000;28;20190;-83
2022/04/14 13:51:29;;;;;;;6.70;4.70;;;29.70;63.00;;;;;;5025827;28;20266;-82
2022/04/14 13:54:16;;;;;;;5.28;4.78;;;29.70;61.60;;;;;;5034275;28;20238;-84
2022/04/14 13:57:03;;;;;;;5.57;5.17;;;29.20;63.40;;;;;;5040046;28;20187;-84
2022/04/14 14:00:07;;;;;;;6.87;5.07;;;29.20;63.80;;;;;;5009573;28;20249;-83
2022/04/14 14:03:11;;;;;;;7.20;6.50;;;28.80;64.40;;;;;;5010770;28;20255;-84
2022/04/14 14:06:18;;;;;;;6.23;5.37;;;28.60;66.10;;;;;;4961315;28;20191;-83
2022/04/14 14:09:02;;;;;;;6.30;4.93;;;27.60;67.40;;;;;;4988114;28;20420;-82
2022/04/14 14:11:50;;;;;;;4.90;4.50;;;27.10;69.80;;;;;;4982037;28;20456;-83
2022/04/14 14:14:37;;;;;;;6.77;4.93;;;26.60;71.40;;;;;;4971489;28;20523;-82
2022/04/14 14:17:23;;;;;;;5.00;4.60;;;26.40;73.00;;;;;;4973617;28;20459;-84
2022/04/14 14:20:14;;;;;;;5.47;4.97;;;26.30;72.80;;;;;;4972864;28;20556;-84